Time,TemperatureF,DewpointF,PressureIn,WindDirection,WindDirectionDegrees,WindSpeedMPH,WindSpeedGustMPH,Humidity,HourlyPrecipIn,Conditions,Clouds,dailyrainin,SoftwareType,DateUTC
2013-08-02 00:00:00,64.5,62.4,29.60,East,81,3.5,3.5,93,0.00,RA,,0.00,WeatherDisplay:10.37,2013-08-01 23:00:00,
2013-08-02 00:05:00,64.5,62.4,29.60,NE,51,3.5,3.5,93,0.00,RA,,0.00,WeatherDisplay:10.37,2013-08-01 23:05:00,
2013-08-02 00:11:00,64.6,62.5,29.60,NE,53,3.5,3.5,93,0.00,CLR,,0.00,WeatherDisplay:10.37,2013-08-01 23:11:00,
2013-08-02 00:17:00,64.7,62.6,29.59,ENE,64,3.5,3.5,93,0.00,CLR,,0.00,WeatherDisplay:10.37,2013-08-01 23:17:00,
2013-08-02 00:22:00,64.8,62.4,29.60,ENE,57,3.5,3.5,92,0.00,CLR,,0.00,WeatherDisplay:10.37,2013-08-01 23:22:00,
2013-08-02 00:27:00,64.8,62.4,29.60,SE,125,2.3,2.3,92,0.00,CLR,,0.00,WeatherDisplay:10.37,2013-08-01 23:27:00,
2013-08-02 00:32:00,64.5,62.1,29.60,ESE,122,2.3,2.3,92,0.00,CLR,,0.00,WeatherDisplay:10.37,2013-08-01 23:32:00,
2013-08-02 00:37:00,64.2,61.8,29.60,SE,140,6.9,6.9,92,0.00,CLR,,0.00,WeatherDisplay:10.37,2013-08-01 23:37:00,
2013-08-02 00:43:00,64.6,61.6,29.60,SSW,195,11.5,11.5,90,0.00,CLR,,0.00,WeatherDisplay:10.37,2013-08-01 23:43:00,
2013-08-02 00:48:00,64.9,61.6,29.60,SE,135,6.0,6.0,89,0.00,CLR,,0.00,WeatherDisplay:10.37,2013-08-01 23:48:00,
2013-08-02 00:53:00,64.8,61.2,29.61,ESE,122,5.8,5.8,88,0.00,CLR,,0.00,WeatherDisplay:10.37,2013-08-01 23:53:00,
2013-08-02 00:59:00,64.9,61.3,29.60,SE,126,8.1,8.1,88,0.00,CLR,,0.00,WeatherDisplay:10.37,2013-08-01 23:59:00,
2013-08-02 01:04:00,64.5,60.9,29.60,East,100,6.9,6.9,88,0.00,CLR,,0.00,WeatherDisplay:10.37,2013-08-02 00:04:00,
2013-08-02 01:10:00,64.1,60.5,29.59,ESE,109,5.8,5.8,88,0.00,CLR,,0.00,WeatherDisplay:10.37,2013-08-02 00:10:00,
2013-08-02 01:16:00,63.9,60.6,29.59,ESE,102,8.1,8.1,89,0.00,CLR,,0.00,WeatherDisplay:10.37,2013-08-02 00:16:00,
2013-08-02 01:22:00,64.2,60.9,29.59,East,98,6.9,6.9,89,0.00,CLR,,0.00,WeatherDisplay:10.37,2013-08-02 00:22:00,
2013-08-02 01:27:00,64.3,60.7,29.59,East,100,9.2,9.2,88,0.00,CLR,,0.00,WeatherDisplay:10.37,2013-08-02 00:27:00,
2013-08-02 01:32:00,64.4,60.8,29.59,ESE,102,8.1,8.1,88,0.00,CLR,,0.00,WeatherDisplay:10.37,2013-08-02 00:32:00,
2013-08-02 01:38:00,64.2,60.6,29.59,ESE,111,8.1,8.1,88,0.00,CLR,,0.00,WeatherDisplay:10.37,2013-08-02 00:38:00,
2013-08-02 01:42:00,64.0,60.7,29.59,ENE,67,8.1,8.1,89,0.00,CLR,,0.00,WeatherDisplay:10.37,2013-08-02 00:42:00,
2013-08-02 01:48:00,63.9,60.6,29.58,East,91,5.8,5.8,89,0.00,CLR,,0.00,WeatherDisplay:10.37,2013-08-02 00:48:00,
2013-08-02 01:54:00,63.8,60.8,29.58,East,92,6.0,6.0,90,0.00,CLR,,0.00,WeatherDisplay:10.37,2013-08-02 00:54:00,
2013-08-02 01:59:00,63.7,60.7,29.58,ENE,64,9.2,9.2,90,0.00,CLR,,0.00,WeatherDisplay:10.37,2013-08-02 00:59:00,
2013-08-02 02:04:00,63.6,60.9,29.58,ENE,70,8.0,8.0,91,0.00,CLR,,0.00,WeatherDisplay:10.37,2013-08-02 01:04:00,
2013-08-02 02:10:00,63.5,60.8,29.57,ENE,70,8.0,8.0,91,0.00,CLR,,0.00,WeatherDisplay:10.37,2013-08-02 01:10:00,
2013-08-02 02:15:00,63.4,60.7,29.57,ENE,68,8.1,8.1,91,0.00,CLR,,0.00,WeatherDisplay:10.37,2013-08-02 01:15:00,
2013-08-02 02:20:00,63.3,60.6,29.57,NE,41,8.1,8.1,91,0.00,CLR,,0.00,WeatherDisplay:10.37,2013-08-02 01:20:00,
2013-08-02 02:27:00,63.3,60.6,29.57,East,79,8.1,8.1,91,0.00,CLR,,0.00,WeatherDisplay:10.37,2013-08-02 01:27:00,
2013-08-02 02:33:00,63.3,60.6,29.56,ENE,57,6.9,6.9,91,0.00,CLR,,0.00,WeatherDisplay:10.37,2013-08-02 01:33:00,
2013-08-02 02:38:00,63.2,60.5,29.56,East,85,5.8,5.8,91,0.00,CLR,,0.00,WeatherDisplay:10.37,2013-08-02 01:38:00,
2013-08-02 02:43:00,63.2,60.5,29.56,ENE,75,6.9,6.9,91,0.00,CLR,,0.00,WeatherDisplay:10.37,2013-08-02 01:43:00,
2013-08-02 02:48:00,63.2,60.5,29.56,ENE,63,6.9,6.9,91,0.00,CLR,,0.00,WeatherDisplay:10.37,2013-08-02 01:48:00,
2013-08-02 02:53:00,63.2,60.5,29.56,East,81,5.8,5.8,91,0.00,CLR,,0.00,WeatherDisplay:10.37,2013-08-02 01:53:00,
2013-08-02 02:58:00,63.3,60.6,29.55,East,88,6.0,6.0,91,0.00,CLR,,0.00,WeatherDisplay:10.37,2013-08-02 01:58:00,
2013-08-02 03:04:00,63.3,60.6,29.55,ENE,67,6.0,6.0,91,0.00,CLR,,0.00,WeatherDisplay:10.37,2013-08-02 02:04:00,
2013-08-02 03:09:00,63.3,60.6,29.55,ENE,75,6.9,6.9,91,0.00,CLR,,0.00,WeatherDisplay:10.37,2013-08-02 02:09:00,
2013-08-02 03:15:00,63.2,60.5,29.55,NE,47,6.9,6.9,91,0.00,CLR,,0.00,WeatherDisplay:10.37,2013-08-02 02:15:00,
2013-08-02 03:21:00,63.2,60.8,29.55,ENE,63,7.0,7.0,92,0.00,CLR,,0.00,WeatherDisplay:10.37,2013-08-02 02:21:00,
2013-08-02 03:27:00,63.1,60.7,29.55,ENE,78,8.1,8.1,92,0.00,CLR,,0.00,WeatherDisplay:10.37,2013-08-02 02:27:00,
2013-08-02 03:32:00,63.0,60.6,29.55,ENE,73,5.8,5.8,92,0.00,CLR,,0.00,WeatherDisplay:10.37,2013-08-02 02:32:00,
2013-08-02 03:37:00,63.1,60.7,29.55,ENE,63,8.1,8.1,92,0.00,CLR,,0.00,WeatherDisplay:10.37,2013-08-02 02:37:00,
2013-08-02 03:43:00,63.1,60.7,29.54,East,93,5.8,5.8,92,0.00,CLR,,0.00,WeatherDisplay:10.37,2013-08-02 02:43:00,
2013-08-02 03:49:00,63.0,60.6,29.54,ESE,113,10.4,10.4,92,0.00,CLR,,0.00,WeatherDisplay:10.37,2013-08-02 02:49:00,
2013-08-02 03:55:00,63.0,60.6,29.54,East,99,11.5,11.5,92,0.00,CLR,,0.00,WeatherDisplay:10.37,2013-08-02 02:55:00,
2013-08-02 04:00:00,63.0,60.6,29.53,ENE,74,9.2,9.2,92,0.00,CLR,,0.00,WeatherDisplay:10.37,2013-08-02 03:00:00,
2013-08-02 04:06:00,63.0,60.9,29.53,ENE,64,9.2,9.2,93,0.00,CLR,,0.00,WeatherDisplay:10.37,2013-08-02 03:06:00,
2013-08-02 04:12:00,63.0,60.9,29.53,ENE,63,11.5,11.5,93,0.00,CLR,,0.00,WeatherDisplay:10.37,2013-08-02 03:12:00,
2013-08-02 04:17:00,63.0,60.6,29.52,East,93,10.4,10.4,92,0.00,CLR,,0.00,WeatherDisplay:10.37,2013-08-02 03:17:00,
2013-08-02 04:22:00,63.1,60.7,29.52,ENE,78,15.0,15.0,92,0.00,CLR,,0.00,WeatherDisplay:10.37,2013-08-02 03:22:00,
2013-08-02 04:27:00,63.2,60.8,29.53,ENE,77,11.5,11.5,92,0.00,CLR,,0.00,WeatherDisplay:10.37,2013-08-02 03:27:00,
2013-08-02 04:32:00,63.0,60.6,29.53,ESE,103,14.0,14.0,92,0.00,CLR,,0.00,WeatherDisplay:10.37,2013-08-02 03:32:00,
2013-08-02 04:38:00,62.7,60.6,29.53,ENE,57,11.5,11.5,93,0.00,CLR,,0.00,WeatherDisplay:10.37,2013-08-02 03:38:00,
2013-08-02 04:43:00,62.4,60.3,29.53,East,81,11.5,11.5,93,0.00,CLR,,0.00,WeatherDisplay:10.37,2013-08-02 03:43:00,
2013-08-02 04:48:00,62.2,60.5,29.53,East,89,11.5,11.5,94,0.00,CLR,,0.00,WeatherDisplay:10.37,2013-08-02 03:48:00,
2013-08-02 04:54:00,62.2,60.5,29.53,ESE,123,11.5,11.5,94,0.00,CLR,,0.00,WeatherDisplay:10.37,2013-08-02 03:54:00,
2013-08-02 05:01:00,62.2,60.5,29.52,ENE,72,11.5,11.5,94,0.00,CLR,,0.00,WeatherDisplay:10.37,2013-08-02 04:01:00,
2013-08-02 05:02:00,62.2,60.5,29.52,ENE,70,10.4,10.4,94,0.00,CLR,,0.00,WeatherDisplay:10.37,2013-08-02 04:02:00,
2013-08-02 05:07:00,62.3,60.6,29.52,ENE,71,8.1,8.1,94,0.00,CLR,,0.00,WeatherDisplay:10.37,2013-08-02 04:07:00,
2013-08-02 05:13:00,62.3,60.6,29.52,ESE,115,10.4,10.4,94,0.00,CLR,,0.00,WeatherDisplay:10.37,2013-08-02 04:13:00,
2013-08-02 05:16:00,62.4,60.7,29.52,ENE,64,10.4,10.4,94,0.00,CLR,,0.00,WeatherDisplay:10.37,2013-08-02 04:16:00,
2013-08-02 05:22:00,62.5,60.7,29.53,ESE,106,11.5,11.5,94,0.00,CLR,,0.00,WeatherDisplay:10.37,2013-08-02 04:22:00,
2013-08-02 05:27:00,62.7,60.6,29.53,East,98,11.5,11.5,93,0.00,CLR,,0.00,WeatherDisplay:10.37,2013-08-02 04:27:00,
2013-08-02 05:32:00,62.9,60.8,29.53,East,88,15.0,15.0,93,0.00,CLR,,0.00,WeatherDisplay:10.37,2013-08-02 04:32:00,
2013-08-02 05:37:00,63.0,60.9,29.53,ESE,110,11.5,11.5,93,0.00,CLR,,0.00,WeatherDisplay:10.37,2013-08-02 04:37:00,
2013-08-02 05:43:00,62.9,60.8,29.53,ENE,75,11.5,11.5,93,0.00,CLR,,0.00,WeatherDisplay:10.37,2013-08-02 04:43:00,
2013-08-02 05:48:00,62.9,60.8,29.52,East,96,11.5,11.5,93,0.00,CLR,,0.00,WeatherDisplay:10.37,2013-08-02 04:48:00,
2013-08-02 05:53:00,62.8,60.7,29.52,East,84,11.5,11.5,93,0.00,CLR,,0.00,WeatherDisplay:10.37,2013-08-02 04:53:00,
2013-08-02 05:58:00,62.7,60.9,29.52,ESE,115,12.7,12.7,94,0.00,CLR,,0.00,WeatherDisplay:10.37,2013-08-02 04:58:00,
2013-08-02 06:04:00,62.7,60.9,29.52,ENE,77,11.5,11.5,94,0.00,CLR,,0.00,WeatherDisplay:10.37,2013-08-02 05:04:00,
2013-08-02 06:10:00,62.7,60.9,29.52,ENE,62,10.4,10.4,94,0.00,CLR,,0.00,WeatherDisplay:10.37,2013-08-02 05:10:00,
2013-08-02 06:15:00,62.8,61.0,29.52,East,84,9.2,9.2,94,0.00,CLR,,0.00,WeatherDisplay:10.37,2013-08-02 05:15:00,
2013-08-02 06:20:00,62.8,61.0,29.52,ENE,72,11.5,11.5,94,0.00,CLR,,0.00,WeatherDisplay:10.37,2013-08-02 05:20:00,
2013-08-02 06:26:00,62.9,61.1,29.52,ENE,75,8.1,8.1,94,0.00,CLR,,0.00,WeatherDisplay:10.37,2013-08-02 05:26:00,
2013-08-02 06:31:00,63.0,61.2,29.53,ENE,71,4.6,4.6,94,0.00,CLR,,0.00,WeatherDisplay:10.37,2013-08-02 05:31:00,
2013-08-02 06:37:00,63.0,60.9,29.52,ENE,72,5.8,5.8,93,0.00,CLR,,0.00,WeatherDisplay:10.37,2013-08-02 05:37:00,
2013-08-02 06:43:00,63.1,61.0,29.53,East,100,11.5,11.5,93,0.00,CLR,,0.00,WeatherDisplay:10.37,2013-08-02 05:43:00,
2013-08-02 06:48:00,63.2,61.1,29.52,ENE,67,9.2,9.2,93,0.00,CLR,,0.00,WeatherDisplay:10.37,2013-08-02 05:48:00,
2013-08-02 06:53:00,63.2,60.8,29.52,East,86,9.2,9.2,92,0.00,CLR,,0.00,WeatherDisplay:10.37,2013-08-02 05:53:00,
2013-08-02 06:58:00,63.2,60.8,29.53,ESE,103,9.2,9.2,92,0.00,CLR,,0.00,WeatherDisplay:10.37,2013-08-02 05:58:00,
2013-08-02 07:03:00,63.3,60.9,29.52,East,89,8.1,8.1,92,0.00,CLR,,0.00,WeatherDisplay:10.37,2013-08-02 06:03:00,
2013-08-02 07:09:00,63.3,60.9,29.52,ENE,70,6.9,6.9,92,0.00,CLR,,0.00,WeatherDisplay:10.37,2013-08-02 06:09:00,
2013-08-02 07:15:00,63.4,61.0,29.52,East,88,8.1,8.1,92,0.00,CLR,,0.00,WeatherDisplay:10.37,2013-08-02 06:15:00,
2013-08-02 07:20:00,63.3,60.9,29.53,ENE,75,6.9,6.9,92,0.00,CLR,,0.00,WeatherDisplay:10.37,2013-08-02 06:20:00,
2013-08-02 07:25:00,63.1,60.7,29.53,East,81,8.1,8.1,92,0.00,CLR,,0.00,WeatherDisplay:10.37,2013-08-02 06:25:00,
2013-08-02 07:30:00,63.0,60.6,29.53,East,93,8.1,8.1,92,0.00,CLR,,0.00,WeatherDisplay:10.37,2013-08-02 06:30:00,
2013-08-02 07:35:00,63.2,60.5,29.53,East,99,9.2,9.2,91,0.00,CLR,,0.00,WeatherDisplay:10.37,2013-08-02 06:35:00,
2013-08-02 07:41:00,63.5,60.5,29.52,East,97,11.5,11.5,90,0.00,CLR,,0.00,WeatherDisplay:10.37,2013-08-02 06:41:00,
2013-08-02 07:46:00,63.9,60.3,29.52,East,98,11.5,11.5,88,0.00,CLR,,0.00,WeatherDisplay:10.37,2013-08-02 06:46:00,
2013-08-02 07:51:00,64.1,60.5,29.52,ESE,102,10.0,10.0,88,0.00,CLR,,0.00,WeatherDisplay:10.37,2013-08-02 06:51:00,
2013-08-02 07:56:00,64.3,60.3,29.52,East,95,12.7,12.7,87,0.00,CLR,,0.00,WeatherDisplay:10.37,2013-08-02 06:56:00,
2013-08-02 08:03:00,64.4,60.4,29.52,East,101,9.2,9.2,87,0.00,CLR,,0.00,WeatherDisplay:10.37,2013-08-02 07:03:00,
2013-08-02 08:08:00,64.3,60.3,29.52,East,88,10.4,10.4,87,0.00,CLR,,0.00,WeatherDisplay:10.37,2013-08-02 07:08:00,
2013-08-02 08:13:00,64.3,60.3,29.53,East,88,11.5,11.5,87,0.00,CLR,,0.00,WeatherDisplay:10.37,2013-08-02 07:13:00,
2013-08-02 08:18:00,64.2,60.2,29.52,East,79,11.5,11.5,87,0.00,CLR,,0.00,WeatherDisplay:10.37,2013-08-02 07:18:00,
2013-08-02 08:23:00,63.8,60.2,29.52,ENE,64,11.5,11.5,88,0.00,CLR,,0.00,WeatherDisplay:10.37,2013-08-02 07:23:00,
2013-08-02 08:29:00,63.7,60.1,29.52,ESE,104,12.0,12.0,88,0.00,CLR,,0.00,WeatherDisplay:10.37,2013-08-02 07:29:00,
2013-08-02 08:34:00,64.1,60.2,29.52,ESE,110,12.0,12.0,87,0.00,CLR,,0.00,WeatherDisplay:10.37,2013-08-02 07:34:00,
2013-08-02 08:39:00,63.9,60.0,29.53,ESE,117,11.5,11.5,87,0.00,CLR,,0.00,WeatherDisplay:10.37,2013-08-02 07:39:00,
2013-08-02 08:45:00,63.7,60.1,29.53,SE,140,11.5,11.5,88,0.00,CLR,,0.00,WeatherDisplay:10.37,2013-08-02 07:45:00,
2013-08-02 08:50:00,63.4,60.1,29.53,SE,143,5.8,5.8,89,0.00,CLR,,0.00,WeatherDisplay:10.37,2013-08-02 07:50:00,
2013-08-02 08:55:00,63.6,60.3,29.53,SE,125,8.1,8.1,89,0.00,CLR,,0.00,WeatherDisplay:10.37,2013-08-02 07:55:00,
2013-08-02 09:00:00,63.8,60.2,29.54,SE,128,6.9,6.9,88,0.00,CLR,,0.00,WeatherDisplay:10.37,2013-08-02 08:00:00,
2013-08-02 09:06:00,63.9,60.0,29.54,SE,142,12.7,12.7,87,0.00,CLR,,0.00,WeatherDisplay:10.37,2013-08-02 08:06:00,
2013-08-02 09:11:00,64.1,60.2,29.54,SSE,155,11.5,11.5,87,0.00,CLR,,0.00,WeatherDisplay:10.37,2013-08-02 08:11:00,
2013-08-02 09:16:00,64.5,59.9,29.54,SSE,162,16.1,16.1,85,0.00,CLR,,0.00,WeatherDisplay:10.37,2013-08-02 08:16:00,
2013-08-02 09:21:00,64.8,59.5,29.54,ESE,123,11.5,11.5,83,0.00,CLR,,0.00,WeatherDisplay:10.37,2013-08-02 08:21:00,
2013-08-02 09:28:00,64.9,59.6,29.54,SE,146,15.0,15.0,83,0.00,CLR,,0.00,WeatherDisplay:10.37,2013-08-02 08:28:00,
2013-08-02 09:33:00,65.0,59.7,29.54,SE,145,17.3,17.3,83,0.00,CLR,,0.00,WeatherDisplay:10.37,2013-08-02 08:33:00,
2013-08-02 09:38:00,65.2,59.9,29.55,East,96,13.0,13.0,83,0.00,CLR,,0.00,WeatherDisplay:10.37,2013-08-02 08:38:00,
2013-08-02 09:43:00,65.2,59.6,29.55,South,181,17.3,17.3,82,0.00,CLR,,0.00,WeatherDisplay:10.37,2013-08-02 08:43:00,
2013-08-02 09:48:00,65.4,60.1,29.55,South,179,11.5,11.5,83,0.00,CLR,,0.00,WeatherDisplay:10.37,2013-08-02 08:48:00,
2013-08-02 09:54:00,65.2,59.6,29.55,SSW,199,17.3,17.3,82,0.00,CLR,,0.00,WeatherDisplay:10.37,2013-08-02 08:54:00,
2013-08-02 09:59:00,65.1,59.5,29.55,South,184,11.5,11.5,82,0.00,CLR,,0.00,WeatherDisplay:10.37,2013-08-02 08:59:00,
2013-08-02 10:04:00,65.1,59.5,29.56,SSE,162,11.5,11.5,82,0.00,CLR,,0.00,WeatherDisplay:10.37,2013-08-02 09:04:00,
2013-08-02 10:09:00,65.3,59.3,29.55,SSW,201,12.0,12.0,81,0.00,CLR,,0.00,WeatherDisplay:10.37,2013-08-02 09:09:00,
2013-08-02 10:14:00,65.5,58.8,29.55,SE,134,11.5,11.5,79,0.00,CLR,,0.00,WeatherDisplay:10.37,2013-08-02 09:14:00,
2013-08-02 10:19:00,65.6,58.9,29.55,ESE,117,16.1,16.1,79,0.00,CLR,,0.00,WeatherDisplay:10.37,2013-08-02 09:19:00,
2013-08-02 10:24:00,65.5,58.8,29.56,South,184,13.0,13.0,79,0.00,CLR,,0.00,WeatherDisplay:10.37,2013-08-02 09:24:00,
2013-08-02 10:30:00,65.4,58.7,29.55,South,181,5.8,5.8,79,0.00,CLR,,0.00,WeatherDisplay:10.37,2013-08-02 09:30:00,
2013-08-02 10:35:00,65.5,58.5,29.56,South,183,16.1,16.1,78,0.00,CLR,,0.00,WeatherDisplay:10.37,2013-08-02 09:35:00,
2013-08-02 10:40:00,65.5,58.8,29.55,ESE,119,10.4,10.4,79,0.00,CLR,,0.00,WeatherDisplay:10.37,2013-08-02 09:40:00,
2013-08-02 10:46:00,65.6,58.2,29.55,ESE,107,11.5,11.5,77,0.00,CLR,,0.00,WeatherDisplay:10.37,2013-08-02 09:46:00,
2013-08-02 10:51:00,65.7,58.3,29.55,SE,125,12.7,12.7,77,0.00,CLR,,0.00,WeatherDisplay:10.37,2013-08-02 09:51:00,
2013-08-02 10:57:00,65.9,57.7,29.55,SE,124,12.7,12.7,75,0.00,CLR,,0.00,WeatherDisplay:10.37,2013-08-02 09:57:00,
2013-08-02 11:02:00,66.0,58.2,29.55,ESE,112,14.0,14.0,76,0.00,CLR,,0.00,WeatherDisplay:10.37,2013-08-02 10:02:00,
2013-08-02 11:07:00,66.0,57.8,29.55,SE,137,16.1,16.1,75,0.00,CLR,,0.00,WeatherDisplay:10.37,2013-08-02 10:07:00,
2013-08-02 11:13:00,66.0,57.8,29.55,SSE,157,11.5,11.5,75,0.00,CLR,,0.00,WeatherDisplay:10.37,2013-08-02 10:13:00,
2013-08-02 11:19:00,66.2,57.3,29.55,SE,128,11.5,11.5,73,0.00,CLR,,0.00,WeatherDisplay:10.37,2013-08-02 10:19:00,
2013-08-02 11:24:00,66.4,57.5,29.55,SE,136,12.7,12.7,73,0.00,CLR,,0.00,WeatherDisplay:10.37,2013-08-02 10:24:00,
2013-08-02 11:29:00,66.5,57.6,29.55,SE,142,12.7,12.7,73,0.00,CLR,,0.00,WeatherDisplay:10.37,2013-08-02 10:29:00,
2013-08-02 11:34:00,66.7,57.8,29.55,SSE,155,15.0,15.0,73,0.00,CLR,,0.00,WeatherDisplay:10.37,2013-08-02 10:34:00,
2013-08-02 11:39:00,66.9,58.3,29.55,SW,235,10.4,10.4,74,0.00,CLR,,0.00,WeatherDisplay:10.37,2013-08-02 10:39:00,
2013-08-02 11:44:00,66.8,58.2,29.55,SSE,158,18.4,18.4,74,0.00,CLR,,0.00,WeatherDisplay:10.37,2013-08-02 10:44:00,
2013-08-02 11:50:00,66.9,58.0,29.55,SSE,150,12.7,12.7,73,0.00,CLR,,0.00,WeatherDisplay:10.37,2013-08-02 10:50:00,
2013-08-02 11:55:00,66.8,57.5,29.56,SSW,205,20.7,20.7,72,0.00,CLR,,0.00,WeatherDisplay:10.37,2013-08-02 10:55:00,
2013-08-02 12:00:00,66.9,57.6,29.55,SE,133,15.0,15.0,72,0.00,CLR,,0.00,WeatherDisplay:10.37,2013-08-02 11:00:00,
2013-08-02 12:06:00,66.7,57.4,29.55,SE,127,20.7,20.7,72,0.00,CLR,,0.00,WeatherDisplay:10.37,2013-08-02 11:06:00,
2013-08-02 12:12:00,66.6,57.3,29.55,SE,127,18.0,18.0,72,0.00,CLR,,0.00,WeatherDisplay:10.37,2013-08-02 11:12:00,
2013-08-02 12:17:00,66.5,57.6,29.55,South,176,19.6,19.6,73,0.00,CLR,,0.00,WeatherDisplay:10.37,2013-08-02 11:17:00,
2013-08-02 12:22:00,66.5,57.2,29.55,SSE,163,19.6,19.6,72,0.00,CLR,,0.00,WeatherDisplay:10.37,2013-08-02 11:22:00,
2013-08-02 12:27:00,66.8,57.5,29.55,ESE,123,19.6,19.6,72,0.00,CLR,,0.00,WeatherDisplay:10.37,2013-08-02 11:27:00,
2013-08-02 12:32:00,67.0,57.7,29.55,SE,142,19.6,19.6,72,0.00,CLR,,0.00,WeatherDisplay:10.37,2013-08-02 11:32:00,
2013-08-02 12:38:00,67.0,58.8,29.55,SSW,209,12.7,12.7,75,0.00,CLR,,0.00,WeatherDisplay:10.37,2013-08-02 11:38:00,
2013-08-02 12:43:00,66.8,58.6,29.55,SE,131,27.6,27.6,75,0.00,CLR,,0.00,WeatherDisplay:10.37,2013-08-02 11:43:00,
2013-08-02 12:48:00,67.0,58.1,29.55,SE,142,15.0,15.0,73,0.00,CLR,,0.00,WeatherDisplay:10.37,2013-08-02 11:48:00,
2013-08-02 12:53:00,67.2,57.9,29.54,SE,140,23.0,23.0,72,0.00,CLR,,0.00,WeatherDisplay:10.37,2013-08-02 11:53:00,
2013-08-02 12:58:00,67.4,58.1,29.55,SSE,158,19.6,19.6,72,0.00,CLR,,0.00,WeatherDisplay:10.37,2013-08-02 11:58:00,
2013-08-02 13:04:00,67.6,57.9,29.55,SE,144,18.4,18.4,71,0.00,CLR,,0.00,WeatherDisplay:10.37,2013-08-02 12:04:00,
2013-08-02 13:09:00,67.6,57.9,29.55,South,174,18.4,18.4,71,0.00,CLR,,0.00,WeatherDisplay:10.37,2013-08-02 12:09:00,
2013-08-02 13:15:00,67.7,58.0,29.55,SE,133,16.1,16.1,71,0.00,CLR,,0.00,WeatherDisplay:10.37,2013-08-02 12:15:00,
2013-08-02 13:20:00,67.9,58.1,29.55,SSE,167,19.6,19.6,71,0.00,CLR,,0.00,WeatherDisplay:10.37,2013-08-02 12:20:00,
2013-08-02 13:26:00,68.0,58.2,29.55,SSW,208,19.6,19.6,71,0.00,CLR,,0.00,WeatherDisplay:10.37,2013-08-02 12:26:00,
2013-08-02 13:31:00,68.0,57.8,29.55,SSW,193,19.6,19.6,70,0.00,CLR,,0.00,WeatherDisplay:10.37,2013-08-02 12:31:00,
2013-08-02 13:36:00,67.7,57.6,29.55,SSE,153,23.0,23.0,70,0.00,CLR,,0.00,WeatherDisplay:10.37,2013-08-02 12:36:00,
2013-08-02 13:41:00,67.5,57.8,29.55,SSE,164,19.6,19.6,71,0.00,CLR,,0.00,WeatherDisplay:10.37,2013-08-02 12:41:00,
2013-08-02 13:46:00,67.5,58.2,29.55,SSW,193,17.0,17.0,72,0.00,CLR,,0.00,WeatherDisplay:10.37,2013-08-02 12:46:00,
2013-08-02 13:51:00,67.4,57.7,29.54,SSW,198,20.7,20.7,71,0.00,CLR,,0.00,WeatherDisplay:10.37,2013-08-02 12:51:00,
2013-08-02 13:56:00,67.7,58.0,29.55,South,190,15.0,15.0,71,0.00,CLR,,0.00,WeatherDisplay:10.37,2013-08-02 12:56:00,
2013-08-02 14:02:00,68.0,57.4,29.54,SSE,161,18.4,18.4,69,0.00,CLR,,0.00,WeatherDisplay:10.37,2013-08-02 13:02:00,
2013-08-02 14:08:00,68.1,57.1,29.54,SW,228,25.3,25.3,68,0.00,CLR,,0.00,WeatherDisplay:10.37,2013-08-02 13:08:00,
2013-08-02 14:13:00,68.0,57.4,29.54,South,181,19.6,19.6,69,0.00,CLR,,0.00,WeatherDisplay:10.37,2013-08-02 13:13:00,
2013-08-02 14:19:00,68.1,57.9,29.54,SW,215,16.1,16.1,70,0.00,CLR,,0.00,WeatherDisplay:10.37,2013-08-02 13:19:00,
2013-08-02 14:24:00,68.0,58.6,29.54,SSW,212,15.0,15.0,72,0.00,CLR,,0.00,WeatherDisplay:10.37,2013-08-02 13:24:00,
2013-08-02 14:29:00,68.1,58.3,29.54,SSW,207,18.4,18.4,71,0.00,CLR,,0.00,WeatherDisplay:10.37,2013-08-02 13:29:00,
2013-08-02 14:34:00,68.6,57.6,29.54,South,186,17.3,17.3,68,0.00,CLR,,0.00,WeatherDisplay:10.37,2013-08-02 13:34:00,
2013-08-02 14:40:00,68.8,57.8,29.53,SSE,150,19.6,19.6,68,0.00,CLR,,0.00,WeatherDisplay:10.37,2013-08-02 13:40:00,
2013-08-02 14:46:00,68.9,57.5,29.54,SE,139,20.0,20.0,67,0.00,CLR,,0.00,WeatherDisplay:10.37,2013-08-02 13:46:00,
2013-08-02 14:51:00,68.7,57.7,29.53,SSW,198,20.7,20.7,68,0.00,CLR,,0.00,WeatherDisplay:10.37,2013-08-02 13:51:00,
2013-08-02 14:56:00,68.6,57.2,29.53,SSW,205,24.2,24.2,67,0.00,CLR,,0.00,WeatherDisplay:10.37,2013-08-02 13:56:00,
2013-08-02 15:02:00,68.9,57.5,29.53,SSW,205,16.1,16.1,67,0.00,CLR,,0.00,WeatherDisplay:10.37,2013-08-02 14:02:00,
2013-08-02 15:07:00,68.9,57.9,29.53,South,189,18.4,18.4,68,0.00,CLR,,0.00,WeatherDisplay:10.37,2013-08-02 14:07:00,
2013-08-02 15:12:00,68.9,57.5,29.53,SE,145,19.6,19.6,67,0.00,CLR,,0.00,WeatherDisplay:10.37,2013-08-02 14:12:00,
2013-08-02 15:17:00,68.8,57.4,29.53,SE,126,20.7,20.7,67,0.00,CLR,,0.00,WeatherDisplay:10.37,2013-08-02 14:17:00,
2013-08-02 15:23:00,69.0,57.6,29.53,SE,136,17.3,17.3,67,0.00,CLR,,0.00,WeatherDisplay:10.37,2013-08-02 14:23:00,
2013-08-02 15:28:00,69.0,57.6,29.53,SE,124,17.3,17.3,67,0.00,CLR,,0.00,WeatherDisplay:10.37,2013-08-02 14:28:00,
2013-08-02 15:33:00,69.0,57.2,29.53,SSE,148,16.1,16.1,66,0.00,CLR,,0.00,WeatherDisplay:10.37,2013-08-02 14:33:00,
2013-08-02 15:39:00,69.2,57.4,29.53,South,175,16.0,16.0,66,0.00,CLR,,0.00,WeatherDisplay:10.37,2013-08-02 14:39:00,
2013-08-02 15:44:00,69.3,57.0,29.53,SE,143,19.6,19.6,65,0.00,CLR,,0.00,WeatherDisplay:10.37,2013-08-02 14:44:00,
2013-08-02 15:49:00,69.1,56.8,29.53,SE,136,18.4,18.4,65,0.00,CLR,,0.00,WeatherDisplay:10.37,2013-08-02 14:49:00,
2013-08-02 15:54:00,69.2,56.9,29.53,SE,139,18.4,18.4,65,0.00,CLR,,0.00,WeatherDisplay:10.37,2013-08-02 14:54:00,
2013-08-02 16:01:00,69.3,57.5,29.53,SSE,155,17.3,17.3,66,0.00,CLR,,0.00,WeatherDisplay:10.37,2013-08-02 15:01:00,
2013-08-02 16:06:00,69.1,56.8,29.54,SE,145,16.1,16.4,65,0.00,CLR,,0.00,WeatherDisplay:10.37,2013-08-02 15:06:00,
2013-08-02 16:12:00,69.3,57.0,29.54,SE,145,16.0,16.0,65,0.00,CLR,,0.00,WeatherDisplay:10.37,2013-08-02 15:12:00,
2013-08-02 16:17:00,69.5,57.2,29.54,SE,143,21.0,21.0,65,0.00,CLR,,0.00,WeatherDisplay:10.37,2013-08-02 15:17:00,
2013-08-02 16:22:00,69.5,57.2,29.53,SE,133,20.7,20.7,65,0.00,CLR,,0.00,WeatherDisplay:10.37,2013-08-02 15:22:00,
2013-08-02 16:27:00,69.5,56.8,29.54,SSW,207,26.5,26.5,64,0.00,CLR,,0.00,WeatherDisplay:10.37,2013-08-02 15:27:00,
2013-08-02 16:33:00,69.2,56.9,29.54,South,175,19.6,19.6,65,0.00,CLR,,0.00,WeatherDisplay:10.37,2013-08-02 15:33:00,
2013-08-02 16:39:00,69.2,57.4,29.54,SE,133,21.9,21.9,66,0.00,CLR,,0.00,WeatherDisplay:10.37,2013-08-02 15:39:00,
2013-08-02 16:44:00,68.9,57.5,29.55,SSW,200,23.0,23.0,67,0.00,CLR,,0.00,WeatherDisplay:10.37,2013-08-02 15:44:00,
2013-08-02 16:50:00,68.8,57.8,29.54,SE,134,16.1,16.1,68,0.00,CLR,,0.00,WeatherDisplay:10.37,2013-08-02 15:50:00,
2013-08-02 16:55:00,68.6,57.2,29.54,SE,125,19.6,19.6,67,0.00,CLR,,0.00,WeatherDisplay:10.37,2013-08-02 15:55:00,
2013-08-02 17:00:00,68.5,57.5,29.55,South,180,24.2,24.2,68,0.00,CLR,,0.00,WeatherDisplay:10.37,2013-08-02 16:00:00,
2013-08-02 17:06:00,68.1,56.7,29.55,SE,145,19.6,19.6,67,0.00,CLR,,0.00,WeatherDisplay:10.37,2013-08-02 16:06:00,
2013-08-02 17:11:00,67.9,56.9,29.55,SE,134,26.5,26.5,68,0.00,CLR,,0.00,WeatherDisplay:10.37,2013-08-02 16:11:00,
2013-08-02 17:16:00,67.8,57.7,29.55,SSE,160,18.4,18.4,70,0.00,CLR,,0.00,WeatherDisplay:10.37,2013-08-02 16:16:00,
2013-08-02 17:22:00,67.5,57.8,29.55,South,181,23.0,23.0,71,0.00,CLR,,0.00,WeatherDisplay:10.37,2013-08-02 16:22:00,
2013-08-02 17:27:00,67.3,58.0,29.55,SE,131,19.6,19.6,72,0.00,CLR,,0.00,WeatherDisplay:10.37,2013-08-02 16:27:00,
2013-08-02 17:32:00,67.0,58.4,29.56,WSW,247,20.7,20.7,74,0.00,CLR,,0.00,WeatherDisplay:10.37,2013-08-02 16:32:00,
2013-08-02 17:37:00,66.5,58.7,29.56,SW,218,24.2,24.2,76,0.00,CLR,,0.00,WeatherDisplay:10.37,2013-08-02 16:37:00,
2013-08-02 17:42:00,65.9,58.5,29.56,SSW,198,24.2,24.2,77,0.00,CLR,,0.00,WeatherDisplay:10.37,2013-08-02 16:42:00,
2013-08-02 17:47:00,65.3,57.9,29.56,ESE,117,23.0,23.0,77,0.00,CLR,,0.00,WeatherDisplay:10.37,2013-08-02 16:47:00,
2013-08-02 17:52:00,64.9,57.9,29.56,South,176,16.1,16.1,78,0.00,CLR,,0.00,WeatherDisplay:10.37,2013-08-02 16:52:00,
2013-08-02 17:57:00,64.6,57.9,29.56,SSE,162,19.6,19.6,79,0.00,CLR,,0.00,WeatherDisplay:10.37,2013-08-02 16:57:00,
2013-08-02 18:02:00,64.4,57.7,29.56,South,176,13.8,13.8,79,0.00,CLR,,0.00,WeatherDisplay:10.37,2013-08-02 17:02:00,
2013-08-02 18:08:00,64.3,58.0,29.55,SSW,198,10.0,10.0,80,0.00,CLR,,0.00,WeatherDisplay:10.37,2013-08-02 17:08:00,
2013-08-02 18:13:00,64.3,58.0,29.56,SSE,157,10.4,10.4,80,0.00,CLR,,0.00,WeatherDisplay:10.37,2013-08-02 17:13:00,
2013-08-02 18:18:00,64.4,58.1,29.55,South,173,8.1,8.1,80,0.00,CLR,,0.00,WeatherDisplay:10.37,2013-08-02 17:18:00,
2013-08-02 18:23:00,64.5,58.2,29.55,South,171,11.5,11.5,80,0.00,CLR,,0.00,WeatherDisplay:10.37,2013-08-02 17:23:00,
2013-08-02 18:29:00,64.7,58.4,29.55,South,171,17.3,17.3,80,0.00,CLR,,0.00,WeatherDisplay:10.37,2013-08-02 17:29:00,
2013-08-02 18:34:00,64.7,58.7,29.55,SE,129,8.1,8.1,81,0.00,CLR,,0.00,WeatherDisplay:10.37,2013-08-02 17:34:00,
2013-08-02 18:39:00,64.7,58.4,29.55,SE,145,11.5,11.5,80,0.00,CLR,,0.00,WeatherDisplay:10.37,2013-08-02 17:39:00,
2013-08-02 18:45:00,65.0,58.7,29.54,SE,142,15.0,15.0,80,0.00,CLR,,0.00,WeatherDisplay:10.37,2013-08-02 17:45:00,
2013-08-02 18:50:00,65.1,58.4,29.55,SE,128,9.2,9.2,79,0.00,CLR,,0.00,WeatherDisplay:10.37,2013-08-02 17:50:00,
2013-08-02 18:56:00,65.2,58.5,29.55,ESE,123,12.7,12.7,79,0.00,CLR,,0.00,WeatherDisplay:10.37,2013-08-02 17:56:00,
2013-08-02 19:02:00,65.6,58.9,29.55,SSW,193,15.0,15.0,79,0.00,CLR,,0.00,WeatherDisplay:10.37,2013-08-02 18:02:00,
2013-08-02 19:07:00,66.0,58.6,29.55,SE,126,18.4,18.4,77,0.00,CLR,,0.00,WeatherDisplay:10.37,2013-08-02 18:07:00,
2013-08-02 19:12:00,66.1,58.7,29.54,SW,215,12.7,12.7,77,0.00,CLR,,0.00,WeatherDisplay:10.37,2013-08-02 18:12:00,
2013-08-02 19:17:00,65.9,58.5,29.55,ESE,119,16.1,16.1,77,0.00,CLR,,0.00,WeatherDisplay:10.37,2013-08-02 18:17:00,
2013-08-02 19:22:00,65.7,58.3,29.54,ESE,117,18.4,18.4,77,0.00,CLR,,0.00,WeatherDisplay:10.37,2013-08-02 18:22:00,
2013-08-02 19:28:00,65.5,57.7,29.55,SE,140,11.5,11.5,76,0.00,CLR,,0.00,WeatherDisplay:10.37,2013-08-02 18:28:00,
2013-08-02 19:33:00,65.4,58.0,29.54,SE,135,9.0,9.0,77,0.00,CLR,,0.00,WeatherDisplay:10.37,2013-08-02 18:33:00,
2013-08-02 19:38:00,65.2,57.4,29.54,SSE,157,11.5,11.5,76,0.00,CLR,,0.00,WeatherDisplay:10.37,2013-08-02 18:38:00,
2013-08-02 19:45:00,65.3,57.2,29.55,SSW,198,10.4,10.4,75,0.00,CLR,,0.00,WeatherDisplay:10.37,2013-08-02 18:45:00,
2013-08-02 19:50:00,65.2,57.1,29.55,SSW,193,15.0,15.0,75,0.00,CLR,,0.00,WeatherDisplay:10.37,2013-08-02 18:50:00,
2013-08-02 19:55:00,65.1,56.6,29.55,SSE,162,9.2,9.2,74,0.00,CLR,,0.00,WeatherDisplay:10.37,2013-08-02 18:55:00,
2013-08-02 20:00:00,65.1,56.6,29.56,SSE,157,11.5,11.5,74,0.00,CLR,,0.00,WeatherDisplay:10.37,2013-08-02 19:00:00,
2013-08-02 20:06:00,65.0,56.5,29.56,South,191,9.2,9.2,74,0.00,CLR,,0.00,WeatherDisplay:10.37,2013-08-02 19:06:00,
2013-08-02 20:11:00,65.0,56.5,29.56,SW,231,8.0,8.0,74,0.00,CLR,,0.00,WeatherDisplay:10.37,2013-08-02 19:11:00,
2013-08-02 20:17:00,64.9,57.2,29.56,South,176,9.2,9.2,76,0.00,CLR,,0.00,WeatherDisplay:10.37,2013-08-02 19:17:00,
2013-08-02 20:22:00,64.7,56.6,29.56,South,169,11.5,11.5,75,0.00,CLR,,0.00,WeatherDisplay:10.37,2013-08-02 19:22:00,
2013-08-02 20:27:00,64.6,57.2,29.56,SE,130,8.1,8.1,77,0.00,CLR,,0.00,WeatherDisplay:10.37,2013-08-02 19:27:00,
2013-08-02 20:32:00,64.3,56.9,29.56,South,191,11.5,11.5,77,0.00,CLR,,0.00,WeatherDisplay:10.37,2013-08-02 19:32:00,
2013-08-02 20:37:00,64.1,57.1,29.56,ESE,110,4.6,4.6,78,0.00,CLR,,0.00,WeatherDisplay:10.37,2013-08-02 19:37:00,
2013-08-02 20:43:00,63.9,56.9,29.56,SE,138,8.1,8.1,78,0.00,CLR,,0.00,WeatherDisplay:10.37,2013-08-02 19:43:00,
2013-08-02 20:49:00,63.8,56.8,29.56,SSW,194,11.5,11.5,78,0.00,CLR,,0.00,WeatherDisplay:10.37,2013-08-02 19:49:00,
2013-08-02 20:54:00,63.6,56.6,29.56,South,187,9.2,9.2,78,0.00,CLR,,0.00,WeatherDisplay:10.37,2013-08-02 19:54:00,
2013-08-02 21:01:00,63.5,56.5,29.56,South,188,11.5,11.5,78,0.00,CLR,,0.00,WeatherDisplay:10.37,2013-08-02 20:01:00,
2013-08-02 21:06:00,63.4,56.4,29.56,ESE,117,9.2,9.2,78,0.00,CLR,,0.00,WeatherDisplay:10.37,2013-08-02 20:06:00,
2013-08-02 21:11:00,63.4,56.4,29.56,SSW,205,10.4,10.4,78,0.00,CLR,,0.00,WeatherDisplay:10.37,2013-08-02 20:11:00,
2013-08-02 21:16:00,63.3,56.3,29.56,South,170,11.5,11.5,78,0.00,CLR,,0.00,WeatherDisplay:10.37,2013-08-02 20:16:00,
2013-08-02 21:22:00,63.5,56.2,29.56,SE,127,9.2,9.2,77,0.00,CLR,,0.00,WeatherDisplay:10.37,2013-08-02 20:22:00,
2013-08-02 21:27:00,63.6,56.3,29.56,SSE,156,10.4,10.4,77,0.00,CLR,,0.00,WeatherDisplay:10.37,2013-08-02 20:27:00,
2013-08-02 21:32:00,63.8,56.4,29.56,SE,146,11.5,11.5,77,0.00,CLR,,0.00,WeatherDisplay:10.37,2013-08-02 20:32:00,
2013-08-02 21:38:00,63.7,56.4,29.57,SE,137,12.7,12.7,77,0.00,CLR,,0.00,WeatherDisplay:10.37,2013-08-02 20:38:00,
2013-08-02 21:43:00,63.7,56.7,29.57,SE,142,5.8,5.8,78,0.00,CLR,,0.00,WeatherDisplay:10.37,2013-08-02 20:43:00,
2013-08-02 21:49:00,63.5,56.9,29.57,SE,138,5.8,5.8,79,0.00,CLR,,0.00,WeatherDisplay:10.37,2013-08-02 20:49:00,
2013-08-02 21:54:00,63.3,56.7,29.57,ESE,121,5.8,5.8,79,0.00,CLR,,0.00,WeatherDisplay:10.37,2013-08-02 20:54:00,
2013-08-02 21:59:00,63.2,56.9,29.57,SSE,150,13.8,13.8,80,0.00,CLR,,0.00,WeatherDisplay:10.37,2013-08-02 20:59:00,
2013-08-02 22:04:00,63.0,57.1,29.57,ESE,122,8.1,8.1,81,0.00,CLR,,0.00,WeatherDisplay:10.37,2013-08-02 21:04:00,
2013-08-02 22:09:00,62.9,57.0,29.57,SE,125,8.1,8.1,81,0.00,CLR,,0.00,WeatherDisplay:10.37,2013-08-02 21:09:00,
2013-08-02 22:14:00,62.8,56.5,29.57,South,187,12.0,12.0,80,0.00,CLR,,0.00,WeatherDisplay:10.37,2013-08-02 21:14:00,
2013-08-02 22:20:00,62.7,56.4,29.57,ESE,122,8.0,8.0,80,0.00,CLR,,0.00,WeatherDisplay:10.37,2013-08-02 21:20:00,
2013-08-02 22:25:00,62.6,56.3,29.57,South,171,9.2,9.2,80,0.00,CLR,,0.00,WeatherDisplay:10.37,2013-08-02 21:25:00,
2013-08-02 22:30:00,62.6,56.3,29.57,South,188,15.0,15.0,80,0.00,CLR,,0.00,WeatherDisplay:10.37,2013-08-02 21:30:00,
2013-08-02 22:36:00,62.5,56.6,29.57,ESE,108,9.2,9.2,81,0.00,CLR,,0.00,WeatherDisplay:10.37,2013-08-02 21:36:00,
2013-08-02 22:41:00,62.5,56.2,29.57,South,179,17.3,17.3,80,0.00,CLR,,0.00,WeatherDisplay:10.37,2013-08-02 21:41:00,
2013-08-02 22:47:00,62.6,56.7,29.57,SSW,201,10.4,10.4,81,0.00,CLR,,0.00,WeatherDisplay:10.37,2013-08-02 21:47:00,
2013-08-02 22:52:00,62.6,56.7,29.57,SSW,201,11.5,11.5,81,0.00,CLR,,0.00,WeatherDisplay:10.37,2013-08-02 21:52:00,
2013-08-02 22:57:00,62.6,56.7,29.57,SSW,209,13.0,13.0,81,0.00,CLR,,0.00,WeatherDisplay:10.37,2013-08-02 21:57:00,
2013-08-02 23:02:00,62.6,56.7,29.57,SE,124,17.3,17.3,81,0.00,CLR,,0.00,WeatherDisplay:10.37,2013-08-02 22:02:00,
2013-08-02 23:08:00,62.6,57.0,29.57,South,181,16.0,16.0,82,0.00,CLR,,0.00,WeatherDisplay:10.37,2013-08-02 22:08:00,
2013-08-02 23:13:00,62.5,56.9,29.57,SSE,157,16.1,16.1,82,0.00,CLR,,0.00,WeatherDisplay:10.37,2013-08-02 22:13:00,
2013-08-02 23:18:00,62.4,56.8,29.57,South,188,13.0,13.0,82,0.00,CLR,,0.00,WeatherDisplay:10.37,2013-08-02 22:18:00,
2013-08-02 23:23:00,62.4,57.2,29.57,SE,142,16.1,16.1,83,0.00,CLR,,0.00,WeatherDisplay:10.37,2013-08-02 22:23:00,
2013-08-02 23:29:00,62.3,57.1,29.56,South,191,12.7,12.7,83,0.00,CLR,,0.00,WeatherDisplay:10.37,2013-08-02 22:29:00,
2013-08-02 23:35:00,62.2,57.0,29.57,SSE,151,17.3,17.3,83,0.00,CLR,,0.00,WeatherDisplay:10.37,2013-08-02 22:35:00,
2013-08-02 23:40:00,62.1,56.9,29.57,SE,131,16.1,16.1,83,0.00,CLR,,0.00,WeatherDisplay:10.37,2013-08-02 22:40:00,
2013-08-02 23:45:00,62.0,56.8,29.57,South,181,11.5,11.5,83,0.00,CLR,,0.00,WeatherDisplay:10.37,2013-08-02 22:45:00,
2013-08-02 23:50:00,61.9,57.0,29.57,SSW,193,11.5,11.5,84,0.00,CLR,,0.00,WeatherDisplay:10.37,2013-08-02 22:50:00,
2013-08-02 23:55:00,61.8,56.9,29.57,SSW,201,12.0,12.0,84,0.00,CLR,,0.00,WeatherDisplay:10.37,2013-08-02 22:55:00,